Time;durP1;ratioP1;P1;durP2;ratioP2;P2;SDS_P1;SDS_P2;PMS_P1;PMS_P2;Temp;Humidity;BMP_temperature;BMP_pressure;BME280_temperature;BME280_humidity;BME280_pressure;Samples;Min_cycle;Max_cycle;Signal;HPM_P1;HPM_P2
2022/10/22 00:01:27;;;;;;;4.50;1.70;;;;;;;16.45;97.96;95348.22;5073023;28;20197;-86
2022/10/22 00:03:53;;;;;;;2.00;1.70;;;;;;;16.41;98.74;95344.47;5073036;28;20196;-85
2022/10/22 00:06:20;;;;;;;1.55;1.45;;;;;;;16.41;98.49;95341.06;5073204;28;20221;-85
2022/10/22 00:08:47;;;;;;;4.03;1.90;;;;;;;16.40;98.61;95339.47;5073220;28;20699;-85
2022/10/22 00:11:16;;;;;;;2.08;1.95;;;;;;;16.40;98.43;95344.69;5066668;28;20221;-85
2022/10/22 00:13:43;;;;;;;2.17;1.70;;;;;;;16.41;98.29;95359.25;5071290;28;20196;-85
2022/10/22 00:16:10;;;;;;;2.75;2.03;;;;;;;16.38;99.70;95357.09;5072406;28;20227;-86
2022/10/22 00:18:37;;;;;;;2.65;1.65;;;;;;;16.33;100.00;95357.75;5073613;28;20210;-86
2022/10/22 00:21:04;;;;;;;4.85;2.05;;;;;;;16.36;99.35;95346.91;5072640;28;20216;-85
2022/10/22 00:23:30;;;;;;;2.85;1.77;;;;;;;16.33;99.70;95357.75;5073161;28;20218;-86
2022/10/22 00:25:58;;;;;;;3.30;1.95;;;;;;;16.35;99.39;95358.34;5072290;28;20634;-85
2022/10/22 00:28:24;;;;;;;2.08;1.75;;;;;;;16.32;100.00;95350.19;5081402;28;20219;-85
2022/10/22 00:30:56;;;;;;;3.05;1.90;;;;;;;16.29;100.00;95356.59;5071482;28;20212;-85
2022/10/22 00:33:23;;;;;;;3.70;1.80;;;;;;;16.30;99.87;95357.41;5073178;28;20197;-84
2022/10/22 00:35:49;;;;;;;5.22;1.90;;;;;;;16.33;99.73;95377.75;5073277;28;20204;-84
2022/10/22 00:38:16;;;;;;;2.35;1.90;;;;;;;16.30;100.00;95391.97;5062793;28;20660;-84
2022/10/22 00:40:42;;;;;;;2.42;1.70;;;;;;;16.27;99.99;95394.19;5072522;28;20185;-85
2022/10/22 00:43:11;;;;;;;2.00;1.55;;;;;;;16.14;100.00;95408.94;5073187;28;20189;-86
2022/10/22 00:45:38;;;;;;;2.25;1.80;;;;;;;16.09;100.00;95410.56;5073248;28;20875;-85
2022/10/22 00:48:07;;;;;;;3.50;1.80;;;;;;;16.04;100.00;95428.59;5073614;28;20648;-85
2022/10/22 00:50:37;;;;;;;4.85;1.70;;;;;;;15.96;100.00;95437.47;5072604;28;20232;-85
2022/10/22 00:53:08;;;;;;;1.80;1.50;;;;;;;15.89;100.00;95432.31;5072157;28;20709;-84
2022/10/22 00:55:35;;;;;;;2.15;1.60;;;;;;;15.82;100.00;95423.78;5072634;28;20201;-85
2022/10/22 00:58:02;;;;;;;1.67;1.30;;;;;;;15.75;100.00;95419.66;5072367;28;20232;-85
2022/10/22 01:00:30;;;;;;;2.92;1.20;;;;;;;15.72;100.00;95418.28;5071668;28;20189;-86
2022/10/22 01:02:57;;;;;;;2.50;1.10;;;;;;;15.68;100.00;95411.13;5071074;28;20197;-85
2022/10/22 01:05:27;;;;;;;1.65;1.20;;;;;;;15.66;100.00;95405.34;5070790;28;20188;-85
2022/10/22 01:07:54;;;;;;;2.95;1.85;;;;;;;15.69;100.00;95403.13;5071332;28;20228;-84
2022/10/22 01:10:37;;;;;;;1.35;1.10;;;;;;;15.60;100.00;95398.41;5071481;28;20588;-84
2022/10/22 01:13:19;;;;;;;1.65;1.00;;;;;;;15.66;100.00;95402.75;5071391;28;20211;-85
2022/10/22 01:15:53;;;;;;;1.63;1.08;;;;;;;15.75;100.00;95401.50;5071417;28;20197;-86
2022/10/22 01:18:24;;;;;;;3.13;1.20;;;;;;;15.84;100.00;95405.41;5065379;28;20197;-85
2022/10/22 01:21:00;;;;;;;2.17;1.20;;;;;;;15.86;100.00;95403.38;5070705;28;20197;-85
2022/10/22 01:23:50;;;;;;;4.13;1.70;;;;;;;15.85;100.00;95399.19;5066305;28;20212;-85
2022/10/22 01:26:25;;;;;;;1.73;1.30;;;;;;;15.83;100.00;95396.03;5084436;28;20216;-85
2022/10/22 01:29:00;;;;;;;1.45;1.25;;;;;;;15.84;100.00;95395.81;5094699;28;20204;-84
2022/10/22 01:31:31;;;;;;;3.65;1.10;;;;;;;15.90;100.00;95394.16;5076810;28;20220;-84
2022/10/22 01:34:00;;;;;;;1.65;1.13;;;;;;;15.96;100.00;95390.72;5073779;28;20560;-85
2022/10/22 01:36:29;;;;;;;3.33;1.45;;;;;;;15.95;100.00;95396.94;5074402;28;20217;-86
2022/10/22 01:38:58;;;;;;;2.28;1.60;;;;;;;15.87;100.00;95400.56;5072994;28;20193;-85
2022/10/22 01:41:27;;;;;;;2.20;1.30;;;;;;;15.91;100.00;95400.94;5074507;28;20197;-84
2022/10/22 01:43:55;;;;;;;3.22;1.40;;;;;;;15.95;100.00;95396.13;5074417;28;20201;-84
2022/10/22 01:46:23;;;;;;;3.67;1.15;;;;;;;15.95;100.00;95406.50;5068765;28;20216;-86
2022/10/22 01:49:06;;;;;;;3.22;1.20;;;;;;;15.94;100.00;95410.91;5074410;28;20553;-85
2022/10/22 01:51:45;;;;;;;1.42;1.30;;;;;;;15.94;100.00;95402.34;5070490;28;20216;-85
2022/10/22 01:54:25;;;;;;;1.98;1.30;;;;;;;15.90;100.00;95396.75;5073156;28;20201;-85
2022/10/22 01:57:03;;;;;;;1.67;1.13;;;;;;;15.80;100.00;95397.22;5072047;28;20246;-84
2022/10/22 01:59:39;;;;;;;2.22;1.30;;;;;;;15.79;100.00;95400.03;5069257;28;20196;-84
2022/10/22 02:02:11;;;;;;;2.47;1.20;;;;;;;15.78;100.00;95399.25;5073731;28;20192;-85
2022/10/22 02:04:43;;;;;;;1.55;1.40;;;;;;;15.83;100.00;95409.00;5074253;28;20192;-84
2022/10/22 02:07:14;;;;;;;4.53;1.20;;;;;;;15.78;100.00;95408.84;5066041;28;20220;-86
2022/10/22 02:09:43;;;;;;;1.63;1.08;;;;;;;15.70;100.00;95414.31;5074018;28;20189;-84
2022/10/22 02:12:11;;;;;;;3.67;1.20;;;;;;;15.70;100.00;95422.91;5073176;28;20849;-85
2022/10/22 02:14:42;;;;;;;1.95;1.08;;;;;;;15.73;100.00;95432.06;5074393;28;20272;-85
2022/10/22 02:17:13;;;;;;;1.30;1.05;;;;;;;15.79;100.00;95429.41;5073041;28;20712;-84
2022/10/22 02:19:47;;;;;;;4.45;1.30;;;;;;;15.75;100.00;95437.84;5074601;28;20577;-85
2022/10/22 02:22:13;;;;;;;1.30;1.20;;;;;;;15.80;100.00;95438.78;5072845;28;20193;-84
2022/10/22 02:24:40;;;;;;;2.22;1.15;;;;;;;15.82;100.00;95441.16;5073667;28;20200;-85
2022/10/22 02:27:11;;;;;;;1.60;1.08;;;;;;;15.83;100.00;95451.34;5073237;28;20216;-84
2022/10/22 02:29:43;;;;;;;1.35;0.90;;;;;;;15.80;100.00;95459.53;5073392;28;20482;-84
2022/10/22 02:32:14;;;;;;;3.17;1.10;;;;;;;15.77;100.00;95457.41;5073565;28;20208;-85
2022/10/22 02:34:41;;;;;;;4.13;1.25;;;;;;;15.78;100.00;95458.16;5073863;28;20193;-85
2022/10/22 02:37:09;;;;;;;2.25;1.10;;;;;;;15.71;100.00;95463.41;5073528;28;20220;-85
2022/10/22 02:39:36;;;;;;;2.85;1.17;;;;;;;15.70;100.00;95466.22;5069318;28;20193;-85
2022/10/22 02:42:03;;;;;;;2.83;1.00;;;;;;;15.63;100.00;95468.84;5073454;28;20193;-85
2022/10/22 02:44:30;;;;;;;3.13;1.23;;;;;;;15.60;100.00;95474.47;5073875;28;20201;-84
2022/10/22 02:46:58;;;;;;;1.65;1.10;;;;;;;15.57;100.00;95480.09;5075046;28;20217;-85
2022/10/22 02:49:24;;;;;;;4.72;1.30;;;;;;;15.47;100.00;95474.53;5080394;28;20189;-85
2022/10/22 02:51:51;;;;;;;2.78;1.40;;;;;;;15.50;100.00;95463.75;5072956;28;20354;-85
2022/10/22 02:54:17;;;;;;;3.45;1.40;;;;;;;15.48;100.00;95461.34;5072765;28;20193;-86
2022/10/22 02:56:44;;;;;;;0.80;0.80;;;;;;;15.57;100.00;95461.94;5072903;28;20221;-85
2022/10/22 02:59:10;;;;;;;2.38;1.00;;;;;;;15.51;100.00;95471.31;5073432;28;20197;-85
2022/10/22 03:01:37;;;;;;;1.45;1.00;;;;;;;15.45;100.00;95464.34;5073701;28;20193;-84
2022/10/22 03:04:05;;;;;;;3.17;1.20;;;;;;;15.48;100.00;95469.13;5073690;28;20208;-85
2022/10/22 03:06:31;;;;;;;1.50;1.10;;;;;;;15.42;100.00;95475.16;5074127;28;20220;-84
2022/10/22 03:08:58;;;;;;;1.20;1.00;;;;;;;15.42;100.00;95462.19;5074546;28;20196;-85
2022/10/22 03:11:24;;;;;;;2.40;0.98;;;;;;;15.45;100.00;95458.38;5067723;28;20220;-85
2022/10/22 03:13:51;;;;;;;2.22;1.10;;;;;;;15.44;100.00;95465.34;5074108;28;20193;-84
2022/10/22 03:16:17;;;;;;;1.67;0.90;;;;;;;15.46;100.00;95471.13;5076108;28;20219;-84
2022/10/22 03:18:44;;;;;;;1.48;1.17;;;;;;;15.50;100.00;95466.31;5091664;28;20691;-85
2022/10/22 03:21:18;;;;;;;1.85;1.17;;;;;;;15.42;100.00;95482.13;5093944;28;20816;-85
2022/10/22 03:23:44;;;;;;;2.53;1.05;;;;;;;15.39;100.00;95475.59;5094432;28;20200;-85
2022/10/22 03:26:13;;;;;;;1.42;1.08;;;;;;;15.40;100.00;95484.13;5093919;28;20220;-86
2022/10/22 03:28:41;;;;;;;2.42;1.10;;;;;;;15.41;100.00;95480.53;5094125;28;20816;-84
2022/10/22 03:31:08;;;;;;;1.90;1.20;;;;;;;15.35;100.00;95489.19;5079992;28;20221;-85
2022/10/22 03:33:34;;;;;;;0.88;0.88;;;;;;;15.33;100.00;95491.19;5072214;28;20193;-85
